Time;durP1;ratioP1;P1;durP2;ratioP2;P2;SDS_P1;SDS_P2;PMS_P1;PMS_P2;Temp;Humidity;BMP_temperature;BMP_pressure;BME280_temperature;BME280_humidity;BME280_pressure;Samples;Min_cycle;Max_cycle;Signal;HPM_P1;HPM_P2
2022/01/26 00:07:11;;;;;;;;;;;0.30;99.90;;;;;;4993162;28;19922;-78
2022/01/26 00:09:38;;;;;;;;;;;0.30;99.90;;;;;;4984319;28;19928;-77
2022/01/26 00:12:05;;;;;;;;;;;0.30;99.90;;;;;;4980951;28;19922;-77
2022/01/26 00:14:38;;;;;;;;;;;0.30;99.90;;;;;;4982094;28;19929;-77
2022/01/26 00:17:05;;;;;;;;;;;0.30;99.90;;;;;;4978934;28;19922;-77
2022/01/26 00:19:47;;;;;;;;;;;0.30;99.90;;;;;;4963734;28;20016;-77
2022/01/26 00:22:35;;;;;;;;;;;0.20;99.90;;;;;;4976030;28;19975;-77
2022/01/26 00:28:07;;;;;;;;;;;0.20;99.90;;;;;;4978271;28;20420;-77
2022/01/26 00:38:48;;;;;;;;;;;0.20;99.90;;;;;;4973450;28;20017;-78
2022/01/26 00:41:19;;;;;;;;;;;0.20;99.90;;;;;;4981533;28;20431;-77
2022/01/26 00:43:51;;;;;;;;;;;0.20;99.90;;;;;;4985036;28;19921;-77
2022/01/26 00:46:18;;;;;;;;;;;0.20;99.90;;;;;;4971929;28;20029;-77
2022/01/26 00:48:45;;;;;;;;;;;0.10;99.90;;;;;;4986353;28;19929;-78
2022/01/26 00:51:16;;;;;;;;;;;0.20;99.90;;;;;;4970350;28;20432;-77
2022/01/26 00:53:48;;;;;;;;;;;0.10;99.90;;;;;;4973874;28;19975;-77
2022/01/26 00:56:15;;;;;;;;;;;0.10;99.90;;;;;;4986042;28;19928;-77
2022/01/26 00:58:42;;;;;;;;;;;0.10;99.90;;;;;;4981136;28;19930;-77
2022/01/26 01:01:09;;;;;;;;;;;0.10;99.90;;;;;;4982643;28;20213;-78
2022/01/26 01:03:42;;;;;;;;;;;0.00;99.90;;;;;;4975702;28;20292;-77
2022/01/26 01:06:47;;;;;;;;;;;0.00;99.90;;;;;;4980253;28;19921;-77
2022/01/26 01:09:05;;;;;;;;;;;0.10;99.90;;;;;;4979306;28;19922;-77
2022/01/26 01:11:31;;;;;;;;;;;0.00;99.90;;;;;;4980908;28;20304;-77
2022/01/26 01:13:58;;;;;;;;;;;0.10;99.90;;;;;;4977552;28;19925;-77
2022/01/26 01:16:25;;;;;;;;;;;0.00;99.90;;;;;;4978150;28;19922;-77
2022/01/26 01:34:12;;;;;;;;;;;0.00;99.90;;;;;;4975954;28;19922;-77
2022/01/26 01:36:41;;;;;;;;;;;0.00;99.90;;;;;;4982721;28;20193;-78
2022/01/26 01:39:08;;;;;;;;;;;0.00;99.90;;;;;;4976872;28;19922;-77
2022/01/26 01:41:36;;;;;;;;;;;0.00;99.90;;;;;;4980546;28;20379;-78
2022/01/26 01:44:04;;;;;;;;;;;0.00;99.90;;;;;;4978880;28;19925;-77
2022/01/26 01:46:31;;;;;;;;;;;0.00;99.90;;;;;;4981650;28;19921;-77
2022/01/26 01:48:59;;;;;;;;;;;0.10;99.90;;;;;;4984178;28;19930;-77
2022/01/26 01:51:31;;;;;;;;;;;0.10;99.90;;;;;;4977946;28;20384;-77
2022/01/26 01:53:57;;;;;;;;;;;0.10;99.90;;;;;;4972666;28;19928;-77
2022/01/26 01:56:25;;;;;;;;;;;0.10;99.90;;;;;;4980084;28;20028;-77
2022/01/26 01:58:53;;;;;;;;;;;0.00;99.90;;;;;;4978013;28;20016;-77
2022/01/26 02:01:20;;;;;;;;;;;0.00;99.90;;;;;;4974480;28;19961;-77
2022/01/26 02:03:47;;;;;;;;;;;0.00;99.90;;;;;;4981693;28;19921;-77
2022/01/26 02:06:17;;;;;;;;;;;0.00;99.90;;;;;;4937267;28;20041;-77
2022/01/26 02:08:44;;;;;;;;;;;0.00;99.90;;;;;;4976594;28;19948;-77
2022/01/26 02:11:12;;;;;;;;;;;0.00;99.90;;;;;;4980180;28;19930;-77
2022/01/26 02:14:05;;;;;;;;;;;0.00;99.90;;;;;;4973410;28;19933;-77
2022/01/26 02:22:04;;;;;;;;;;;-0.10;99.90;;;;;;4975107;28;20021;-77
2022/01/26 03:02:44;;;;;;;;;;;-0.10;99.90;;;;;;4980775;28;19930;-78
2022/01/26 03:05:14;;;;;;;;;;;-0.10;99.90;;;;;;4977121;28;19953;-78
2022/01/26 03:07:46;;;;;;;;;;;-0.10;99.90;;;;;;4980194;28;19957;-78
2022/01/26 03:10:26;;;;;;;;;;;-0.10;99.90;;;;;;4983402;28;19936;-78
2022/01/26 03:13:15;;;;;;;;;;;-0.10;99.90;;;;;;4980249;28;19932;-78
2022/01/26 03:15:55;;;;;;;;;;;-0.10;99.90;;;;;;4981784;28;19930;-79
2022/01/26 03:18:50;;;;;;;;;;;-0.10;99.90;;;;;;4979129;28;19929;-78
2022/01/26 03:21:17;;;;;;;;;;;-0.10;99.90;;;;;;4978335;28;19928;-78
2022/01/26 03:33:12;;;;;;;;;;;-0.10;99.90;;;;;;4982315;28;19935;-78
2022/01/26 03:35:00;;;;;;;;;;;-0.20;99.90;;;;;;4979418;28;19922;-78
2022/01/26 03:37:34;;;;;;;;;;;-0.10;99.90;;;;;;4980805;28;19936;-78
2022/01/26 03:40:03;;;;;;;;;;;-0.10;99.90;;;;;;4977330;28;19925;-78
2022/01/26 03:42:29;;;;;;;;;;;-0.20;99.90;;;;;;4994244;28;19932;-77
2022/01/26 03:44:58;;;;;;;;;;;-0.20;99.90;;;;;;4977554;28;20351;-77
2022/01/26 03:50:54;;;;;;;;;;;-0.20;99.90;;;;;;4973338;28;20465;-77
2022/01/26 03:53:20;;;;;;;;;;;-0.20;99.90;;;;;;4983000;28;19922;-77
2022/01/26 03:55:49;;;;;;;;;;;-0.20;99.90;;;;;;4944860;28;19930;-77
2022/01/26 03:58:16;;;;;;;;;;;-0.20;99.90;;;;;;4984780;28;19926;-78
2022/01/26 04:00:43;;;;;;;;;;;-0.30;99.90;;;;;;4984894;28;20331;-78
2022/01/26 04:03:10;;;;;;;;;;;-0.20;99.90;;;;;;4982562;28;19925;-78
2022/01/26 04:05:37;;;;;;;;;;;-0.30;99.90;;;;;;5003169;28;19968;-78
2022/01/26 04:08:10;;;;;;;;;;;-0.30;99.90;;;;;;4982590;28;19928;-78
2022/01/26 04:11:13;;;;;;;;;;;-0.30;99.90;;;;;;4979552;28;19937;-78
2022/01/26 04:13:29;;;;;;;;;;;-0.30;99.90;;;;;;4984357;28;20490;-78
2022/01/26 04:15:56;;;;;;;;;;;-0.20;99.90;;;;;;4984947;28;19922;-78
2022/01/26 04:18:29;;;;;;;;;;;-0.20;99.90;;;;;;4982487;28;19922;-78
2022/01/26 04:21:00;;;;;;;;;;;-0.30;99.90;;;;;;4976073;28;19930;-78
2022/01/26 04:23:54;;;;;;;;;;;-0.20;99.90;;;;;;4979663;28;19955;-78
2022/01/26 04:26:18;;;;;;;;;;;-0.20;99.90;;;;;;4974472;28;19937;-78
2022/01/26 04:28:51;;;;;;;;;;;-0.30;99.90;;;;;;4981204;28;19926;-78
2022/01/26 04:31:20;;;;;;;;;;;-0.30;99.90;;;;;;4976508;28;19952;-78
2022/01/26 04:33:47;;;;;;;;;;;-0.30;99.90;;;;;;4973779;28;20031;-78
2022/01/26 04:36:23;;;;;;;;;;;-0.30;99.90;;;;;;4972378;28;19975;-78
2022/01/26 04:38:54;;;;;;;;;;;-0.30;99.90;;;;;;4977447;28;19925;-78
2022/01/26 04:41:42;;;;;;;;;;;-0.30;99.90;;;;;;4984511;28;19922;-77
2022/01/26 04:44:48;;;;;;;;;;;-0.40;99.90;;;;;;4976977;28;19931;-77
2022/01/26 04:47:02;;;;;;;;;;;-0.40;99.90;;;;;;4976467;28;20001;-78
2022/01/26 04:49:34;;;;;;;;;;;-0.40;99.90;;;;;;4982731;28;20036;-78
2022/01/26 04:52:01;;;;;;;;;;;-0.40;99.90;;;;;;4983906;28;20025;-78
2022/01/26 04:54:28;;;;;;;;;;;-0.40;99.90;;;;;;4985568;28;20020;-78
2022/01/26 04:56:54;;;;;;;;;;;-0.40;99.90;;;;;;4983734;28;20384;-78
2022/01/26 04:59:21;;;;;;;;;;;-0.40;99.90;;;;;;4984538;28;19928;-78
2022/01/26 05:01:48;;;;;;;;;;;-0.40;99.90;;;;;;4978848;28;19929;-78
2022/01/26 05:04:15;;;;;;;;;;;-0.40;99.90;;;;;;4975978;28;20384;-78
2022/01/26 05:06:42;;;;;;;;;;;-0.40;99.90;;;;;;4980174;28;20420;-78
2022/01/26 05:09:08;;;;;;;;;;;-0.30;99.90;;;;;;4973300;28;19929;-78
2022/01/26 05:11:38;;;;;;;;;;;-0.40;99.90;;;;;;4984780;28;19933;-78
2022/01/26 05:14:05;;;;;;;;;;;-0.40;99.90;;;;;;4983848;28;19933;-78
2022/01/26 05:16:32;;;;;;;;;;;-0.40;99.90;;;;;;4980099;28;19928;-78
2022/01/26 05:18:59;;;;;;;;;;;-0.30;99.90;;;;;;4983645;28;19922;-78
2022/01/26 05:21:27;;;;;;;;;;;-0.30;99.90;;;;;;4982344;28;19932;-78
2022/01/26 05:23:53;;;;;;;;;;;-0.30;99.90;;;;;;4980825;28;19922;-78
2022/01/26 05:26:20;;;;;;;;;;;-0.30;99.90;;;;;;5008262;28;20389;-78
2022/01/26 05:28:47;;;;;;;;;;;-0.30;99.90;;;;;;5026270;28;19920;-78
2022/01/26 05:31:17;;;;;;;;;;;-0.30;99.90;;;;;;4982467;28;19996;-78
2022/01/26 05:33:43;;;;;;;;;;;-0.30;99.90;;;;;;5015648;28;19967;-78
2022/01/26 05:36:10;;;;;;;;;;;-0.30;99.90;;;;;;5020742;28;19929;-78
2022/01/26 05:38:37;;;;;;;;;;;-0.30;99.90;;;;;;5026601;28;19950;-78
2022/01/26 05:41:04;;;;;;;;;;;-0.30;99.90;;;;;;5018476;28;19963;-78
2022/01/26 05:43:34;;;;;;;;;;;-0.30;99.90;;;;;;5015026;28;19920;-78
2022/01/26 05:46:07;;;;;;;;;;;-0.30;99.90;;;;;;4998309;28;20301;-78
2022/01/26 05:48:35;;;;;;;;;;;-0.30;99.90;;;;;;4983010;28;19922;-78
2022/01/26 05:51:06;;;;;;;;;;;-0.30;99.90;;;;;;4978082;28;19949;-78
2022/01/26 05:53:36;;;;;;;;;;;-0.30;99.90;;;;;;4983819;28;19922;-78
2022/01/26 05:56:03;;;;;;;;;;;-0.30;99.90;;;;;;4982202;28;20292;-78
2022/01/26 05:58:30;;;;;;;;;;;-0.30;99.90;;;;;;4982248;28;19922;-78
2022/01/26 06:00:59;;;;;;;;;;;-0.20;99.90;;;;;;4982816;28;20368;-78
2022/01/26 06:03:26;;;;;;;;;;;-0.30;99.90;;;;;;4973473;28;20367;-78
2022/01/26 06:05:54;;;;;;;;;;;-0.30;99.90;;;;;;4986714;28;20312;-78
2022/01/26 06:08:21;;;;;;;;;;;-0.30;99.90;;;;;;4981054;28;19980;-78
2022/01/26 06:10:48;;;;;;;;;;;-0.30;99.90;;;;;;4983866;28;19933;-78
2022/01/26 06:13:15;;;;;;;;;;;-0.30;99.90;;;;;;4978204;28;19921;-78
2022/01/26 06:15:43;;;;;;;;;;;-0.20;99.90;;;;;;4981243;28;19929;-78
2022/01/26 06:18:10;;;;;;;;;;;-0.20;99.90;;;;;;4981278;28;20433;-78
2022/01/26 06:20:37;;;;;;;;;;;-0.10;99.90;;;;;;4947857;28;19921;-78
2022/01/26 06:23:04;;;;;;;;;;;-0.10;99.90;;;;;;4976391;28;20376;-78
2022/01/26 06:25:31;;;;;;;;;;;-0.10;99.90;;;;;;4991976;28;19933;-78
2022/01/26 06:27:59;;;;;;;;;;;-0.10;99.90;;;;;;4966538;28;20591;-78
2022/01/26 06:30:29;;;;;;;;;;;-0.10;99.90;;;;;;4973306;28;19922;-78
2022/01/26 06:32:56;;;;;;;;;;;-0.10;99.90;;;;;;4983784;28;19925;-78
2022/01/26 06:35:23;;;;;;;;;;;-0.10;99.90;;;;;;4979605;28;19929;-78
2022/01/26 06:37:49;;;;;;;;;;;-0.10;99.90;;;;;;4984269;28;19921;-78
2022/01/26 06:40:17;;;;;;;;;;;-0.10;99.90;;;;;;4952980;28;19930;-78
2022/01/26 06:45:24;;;;;;;;;;;-0.10;99.90;;;;;;4977547;28;19933;-78
2022/01/26 06:50:37;;;;;;;;;;;0.00;99.90;;;;;;4955568;28;20447;-78
2022/01/26 06:53:06;;;;;;;;;;;0.00;99.90;;;;;;4974278;28;20213;-78
2022/01/26 06:55:33;;;;;;;;;;;0.00;99.90;;;;;;4982741;28;19928;-78
2022/01/26 06:58:00;;;;;;;;;;;0.00;99.90;;;;;;4978082;28;19922;-78
2022/01/26 07:00:30;;;;;;;;;;;0.00;99.90;;;;;;4982949;28;20385;-78
2022/01/26 07:02:57;;;;;;;;;;;0.00;99.90;;;;;;4976840;28;20010;-78
2022/01/26 07:05:24;;;;;;;;;;;0.00;99.90;;;;;;4972964;28;19922;-78
2022/01/26 07:07:51;;;;;;;;;;;0.00;99.90;;;;;;4984782;28;19929;-78
2022/01/26 07:10:18;;;;;;;;;;;0.00;99.90;;;;;;4974583;28;19930;-78
2022/01/26 07:12:44;;;;;;;;;;;0.00;99.90;;;;;;4984921;28;20131;-78
2022/01/26 07:23:37;;;;;;;;;;;0.10;99.90;;;;;;4983325;28;20486;-79
2022/01/26 07:26:03;;;;;;;;;;;0.10;99.90;;;;;;4984126;28;20089;-78
2022/01/26 07:28:35;;;;;;;;;;;0.10;99.90;;;;;;4976064;28;20727;-79
2022/01/26 07:31:07;;;;;;;;;;;0.10;99.90;;;;;;4979913;28;20416;-79
2022/01/26 07:33:34;;;;;;;;;;;0.10;99.90;;;;;;4972846;28;20483;-79
2022/01/26 07:36:01;;;;;;;;;;;0.10;99.90;;;;;;4979672;28;19922;-78
2022/01/26 07:38:27;;;;;;;;;;;0.10;99.90;;;;;;4978515;28;19929;-78
2022/01/26 07:40:54;;;;;;;;;;;0.10;99.90;;;;;;4980892;28;19921;-78
2022/01/26 07:43:22;;;;;;;;;;;0.10;99.90;;;;;;4976842;28;20384;-79
2022/01/26 07:45:48;;;;;;;;;;;0.10;99.90;;;;;;4984717;28;19922;-79
2022/01/26 07:48:17;;;;;;;;;;;0.10;99.90;;;;;;4975889;28;19930;-79
2022/01/26 07:50:45;;;;;;;;;;;0.10;99.90;;;;;;4982810;28;19929;-79
2022/01/26 07:53:15;;;;;;;;;;;0.10;99.90;;;;;;4982306;28;19929;-78
2022/01/26 07:55:43;;;;;;;;;;;0.20;99.90;;;;;;4976457;28;19921;-79
2022/01/26 07:58:10;;;;;;;;;;;0.20;99.90;;;;;;4976133;28;20157;-79
2022/01/26 08:00:37;;;;;;;;;;;0.20;99.90;;;;;;4983917;28;19922;-79
2022/01/26 08:03:04;;;;;;;;;;;0.20;99.90;;;;;;4979113;28;19969;-79
2022/01/26 08:05:31;;;;;;;;;;;0.20;99.90;;;;;;4978934;28;19929;-79
2022/01/26 08:07:57;;;;;;;;;;;0.20;99.90;;;;;;4986723;28;20406;-79
2022/01/26 08:10:24;;;;;;;;;;;0.20;99.90;;;;;;4984721;28;19928;-79
2022/01/26 08:12:51;;;;;;;;;;;0.20;99.90;;;;;;4975411;28;19926;-78
2022/01/26 08:15:26;;;;;;;;;;;0.20;99.90;;;;;;4985566;28;20487;-78
2022/01/26 08:17:53;;;;;;;;;;;0.20;99.90;;;;;;4983787;28;19973;-78
2022/01/26 08:20:21;;;;;;;;;;;0.20;99.90;;;;;;4983167;28;20265;-79
2022/01/26 08:22:49;;;;;;;;;;;0.20;99.90;;;;;;4969938;28;19922;-78
2022/01/26 08:25:16;;;;;;;;;;;0.30;99.90;;;;;;4984617;28;19945;-78
2022/01/26 08:27:54;;;;;;;;;;;0.30;99.90;;;;;;4982992;28;20265;-78
2022/01/26 08:30:21;;;;;;;;;;;0.30;99.90;;;;;;4988343;28;19930;-78
2022/01/26 08:32:48;;;;;;;;;;;0.30;99.90;;;;;;4982682;28;19944;-78
2022/01/26 08:35:15;;;;;;;;;;;0.30;99.90;;;;;;4982523;28;20000;-78
2022/01/26 08:37:41;;;;;;;;;;;0.30;99.90;;;;;;4985147;28;20028;-78
2022/01/26 08:40:10;;;;;;;;;;;0.30;99.90;;;;;;4983189;28;20418;-78
2022/01/26 08:42:37;;;;;;;;;;;0.40;99.90;;;;;;4977715;28;19930;-78
2022/01/26 08:45:05;;;;;;;;;;;0.30;99.90;;;;;;4985901;28;20025;-78
2022/01/26 08:47:32;;;;;;;;;;;0.40;99.90;;;;;;4980907;28;19934;-78
2022/01/26 08:49:58;;;;;;;;;;;0.40;99.90;;;;;;4977317;28;19926;-78
2022/01/26 08:52:25;;;;;;;;;;;0.40;99.90;;;;;;4962232;28;19926;-78
2022/01/26 08:54:52;;;;;;;;;;;0.40;99.90;;;;;;5021805;28;19945;-78
2022/01/26 08:57:18;;;;;;;;;;;0.50;99.90;;;;;;4977342;28;19930;-78
2022/01/26 08:59:45;;;;;;;;;;;0.50;99.90;;;;;;4980191;28;19930;-78
2022/01/26 09:02:12;;;;;;;;;;;0.50;99.90;;;;;;4977012;28;19926;-78
2022/01/26 09:04:39;;;;;;;;;;;0.60;99.90;;;;;;4980433;28;19930;-78
2022/01/26 09:07:05;;;;;;;;;;;0.60;99.90;;;;;;4977890;28;19926;-78
2022/01/26 09:09:42;;;;;;;;;;;0.60;99.90;;;;;;4978291;28;19948;-78
2022/01/26 09:12:14;;;;;;;;;;;0.70;99.90;;;;;;4982736;28;19925;-78
2022/01/26 09:14:41;;;;;;;;;;;0.70;99.90;;;;;;5002712;28;19926;-78
2022/01/26 09:17:08;;;;;;;;;;;0.70;99.90;;;;;;5005800;28;19921;-78
2022/01/26 09:19:38;;;;;;;;;;;0.70;99.90;;;;;;4996842;28;19997;-78
2022/01/26 09:22:06;;;;;;;;;;;0.80;99.90;;;;;;4980593;28;19926;-78
2022/01/26 09:24:34;;;;;;;;;;;0.70;99.90;;;;;;4985394;28;19933;-78
2022/01/26 09:27:04;;;;;;;;;;;0.80;99.90;;;;;;4985324;28;19926;-78
2022/01/26 09:29:31;;;;;;;;;;;0.80;99.90;;;;;;4981731;28;19953;-78
2022/01/26 09:31:58;;;;;;;;;;;0.70;99.90;;;;;;4977642;28;19942;-78
2022/01/26 09:34:27;;;;;;;;;;;0.80;99.90;;;;;;4975495;28;19926;-78
2022/01/26 09:36:54;;;;;;;;;;;0.90;99.90;;;;;;4977464;28;19930;-78
2022/01/26 09:39:23;;;;;;;;;;;0.80;99.90;;;;;;4982363;28;20263;-78
2022/01/26 09:41:51;;;;;;;;;;;0.90;99.90;;;;;;4981058;28;19940;-78
2022/01/26 09:44:19;;;;;;;;;;;0.80;99.90;;;;;;4976564;28;19932;-77
2022/01/26 09:46:46;;;;;;;;;;;0.90;99.90;;;;;;4984317;28;19969;-77
2022/01/26 09:49:17;;;;;;;;;;;0.90;99.90;;;;;;4981977;28;20285;-78
2022/01/26 09:51:47;;;;;;;;;;;0.90;99.90;;;;;;4983771;28;19934;-77
2022/01/26 09:54:16;;;;;;;;;;;0.90;99.90;;;;;;4990097;28;19926;-78
2022/01/26 09:56:51;;;;;;;;;;;0.90;99.90;;;;;;4984925;28;19926;-78
2022/01/26 09:59:20;;;;;;;;;;;0.90;99.90;;;;;;4984199;28;20400;-78
2022/01/26 10:01:50;;;;;;;;;;;1.00;99.90;;;;;;4975698;28;20033;-77
2022/01/26 10:04:29;;;;;;;;;;;1.00;99.90;;;;;;4982253;28;19928;-78
2022/01/26 10:07:09;;;;;;;;;;;1.00;99.90;;;;;;4981932;28;19972;-78
2022/01/26 10:17:36;;;;;;;;;;;1.10;99.90;;;;;;4984322;28;20311;-78
2022/01/26 10:20:06;;;;;;;;;;;1.00;99.90;;;;;;4983508;28;19945;-77
2022/01/26 10:22:36;;;;;;;;;;;1.00;99.90;;;;;;4983725;28;19921;-77
2022/01/26 10:25:07;;;;;;;;;;;1.00;99.90;;;;;;4987604;28;19922;-77
2022/01/26 10:27:57;;;;;;;;;;;1.00;99.90;;;;;;4976557;28;19952;-78
2022/01/26 10:30:24;;;;;;;;;;;1.10;99.90;;;;;;4984213;28;20403;-78
2022/01/26 10:32:50;;;;;;;;;;;1.10;99.90;;;;;;4983629;28;19928;-78
2022/01/26 10:35:17;;;;;;;;;;;1.10;99.90;;;;;;4982248;28;20346;-78
2022/01/26 10:37:53;;;;;;;;;;;1.10;99.90;;;;;;4983842;28;20000;-77
2022/01/26 10:40:22;;;;;;;;;;;1.10;99.90;;;;;;4973353;28;20307;-77
2022/01/26 10:42:55;;;;;;;;;;;1.20;99.90;;;;;;4978024;28;19922;-77
2022/01/26 10:45:36;;;;;;;;;;;1.10;99.90;;;;;;4981449;28;20196;-77
2022/01/26 10:48:41;;;;;;;;;;;1.20;99.90;;;;;;4982404;28;20000;-78
2022/01/26 10:53:55;;;;;;;;;;;1.20;99.90;;;;;;4961341;28;19922;-78
2022/01/26 10:56:22;;;;;;;;;;;1.20;99.90;;;;;;4976232;28;19933;-78
2022/01/26 10:58:51;;;;;;;;;;;1.30;99.90;;;;;;4969420;28;19932;-78
2022/01/26 11:01:18;;;;;;;;;;;1.30;99.90;;;;;;4979631;28;19922;-77
2022/01/26 11:03:45;;;;;;;;;;;1.30;99.90;;;;;;4970333;28;19922;-78
2022/01/26 11:06:16;;;;;;;;;;;1.30;99.90;;;;;;4970907;28;20080;-77
2022/01/26 11:08:43;;;;;;;;;;;1.30;99.90;;;;;;4973527;28;19922;-77
2022/01/26 11:11:20;;;;;;;;;;;1.30;99.90;;;;;;4998656;28;19922;-77
2022/01/26 11:13:46;;;;;;;;;;;1.20;99.90;;;;;;4986406;28;19921;-77
2022/01/26 11:16:13;;;;;;;;;;;1.20;99.90;;;;;;4987378;28;19922;-77
2022/01/26 11:18:53;;;;;;;;;;;1.20;99.90;;;;;;4987397;28;19922;-77
2022/01/26 11:21:30;;;;;;;;;;;1.20;99.90;;;;;;4986383;28;19922;-77
2022/01/26 11:24:09;;;;;;;;;;;1.20;99.90;;;;;;4983011;28;20296;-77
2022/01/26 11:26:38;;;;;;;;;;;1.20;99.90;;;;;;4980223;28;19933;-77
2022/01/26 11:29:17;;;;;;;;;;;1.30;99.90;;;;;;4983393;28;19961;-77
2022/01/26 11:31:44;;;;;;;;;;;1.30;99.90;;;;;;4984084;28;20285;-77
2022/01/26 11:34:18;;;;;;;;;;;1.30;99.90;;;;;;4982380;28;19926;-77
2022/01/26 11:36:45;;;;;;;;;;;1.40;99.90;;;;;;4980786;28;20385;-77
2022/01/26 11:45:28;;;;;;;;;;;1.40;99.90;;;;;;4983555;28;20380;-77
2022/01/26 11:48:01;;;;;;;;;;;1.40;99.90;;;;;;4931836;28;19922;-77
2022/01/26 11:50:28;;;;;;;;;;;1.50;99.90;;;;;;4978941;28;19929;-76
2022/01/26 11:53:21;;;;;;;;;;;1.40;99.90;;;;;;4985684;28;19921;-77
2022/01/26 11:55:58;;;;;;;;;;;1.40;99.90;;;;;;4975359;28;19930;-76
2022/01/26 11:58:29;;;;;;;;;;;1.40;99.90;;;;;;4983750;28;19930;-77
2022/01/26 12:01:14;;;;;;;;;;;1.40;99.90;;;;;;4977993;28;19945;-77
2022/01/26 12:03:46;;;;;;;;;;;1.40;99.90;;;;;;4985234;28;19926;-77
2022/01/26 12:06:26;;;;;;;;;;;1.50;99.90;;;;;;4986226;28;19922;-77
2022/01/26 12:08:53;;;;;;;;;;;1.50;99.90;;;;;;4977621;28;19932;-77
2022/01/26 12:11:20;;;;;;;;;;;1.50;99.90;;;;;;4980416;28;19941;-77
2022/01/26 12:13:51;;;;;;;;;;;1.50;99.90;;;;;;4982025;28;19934;-77
2022/01/26 12:16:22;;;;;;;;;;;1.40;99.90;;;;;;4980091;28;19930;-78
2022/01/26 12:19:11;;;;;;;;;;;1.50;99.90;;;;;;4984527;28;19922;-78
2022/01/26 12:38:08;;;;;;;;;;;1.40;99.90;;;;;;4983789;28;19922;-78
2022/01/26 12:43:35;;;;;;;;;;;1.50;99.90;;;;;;4977289;28;19921;-77
2022/01/26 12:46:03;;;;;;;;;;;1.40;99.90;;;;;;4972043;28;19922;-77
2022/01/26 12:48:30;;;;;;;;;;;1.40;99.90;;;;;;4975236;28;19922;-78
2022/01/26 12:50:57;;;;;;;;;;;1.40;99.90;;;;;;4987614;28;20152;-78
2022/01/26 12:53:32;;;;;;;;;;;1.40;99.90;;;;;;4983352;28;19922;-78
2022/01/26 12:56:00;;;;;;;;;;;1.50;99.90;;;;;;4974525;28;19922;-79
2022/01/26 12:58:34;;;;;;;;;;;1.50;99.90;;;;;;4978796;28;19952;-78
2022/01/26 13:01:06;;;;;;;;;;;1.50;99.90;;;;;;4981337;28;19921;-78
2022/01/26 13:03:38;;;;;;;;;;;1.50;99.90;;;;;;4976950;28;19928;-78
2022/01/26 13:06:08;;;;;;;;;;;1.40;99.90;;;;;;4983996;28;20303;-78
2022/01/26 13:08:39;;;;;;;;;;;1.40;99.90;;;;;;4984007;28;20007;-78
2022/01/26 13:11:05;;;;;;;;;;;1.40;99.90;;;;;;4983341;28;20338;-78
2022/01/26 13:13:35;;;;;;;;;;;1.50;99.90;;;;;;4981838;28;19933;-78
2022/01/26 13:16:20;;;;;;;;;;;1.50;99.90;;;;;;4982896;28;19926;-78
2022/01/26 13:19:42;;;;;;;;;;;1.50;99.90;;;;;;4976953;28;19926;-78
2022/01/26 13:24:36;;;;;;;;;;;1.60;99.90;;;;;;4973484;28;19928;-78
2022/01/26 13:27:31;;;;;;;;;;;1.60;99.90;;;;;;4982606;28;19949;-78
2022/01/26 13:33:26;;;;;;;;;;;1.50;99.90;;;;;;4972851;28;19926;-79
2022/01/26 13:41:36;;;;;;;;;;;1.50;99.90;;;;;;4983668;28;19930;-79
2022/01/26 13:57:11;;;;;;;;;;;1.60;99.90;;;;;;4969007;28;20304;-79
2022/01/26 13:59:46;;;;;;;;;;;1.60;99.90;;;;;;4978185;28;20375;-79
2022/01/26 14:02:13;;;;;;;;;;;1.60;99.90;;;;;;4975326;28;19933;-79
2022/01/26 14:04:40;;;;;;;;;;;1.60;99.90;;;;;;4976513;28;19930;-79
2022/01/26 14:07:06;;;;;;;;;;;1.50;99.90;;;;;;4977775;28;19922;-79
2022/01/26 14:09:33;;;;;;;;;;;1.50;99.90;;;;;;4971560;28;19926;-78
2022/01/26 14:12:01;;;;;;;;;;;1.60;99.90;;;;;;4982799;28;19933;-78
2022/01/26 14:14:41;;;;;;;;;;;1.60;99.90;;;;;;4978836;28;20304;-78
2022/01/26 14:17:16;;;;;;;;;;;1.60;99.90;;;;;;4985455;28;19921;-79
2022/01/26 14:20:07;;;;;;;;;;;1.60;99.90;;;;;;4978818;28;19925;-79
2022/01/26 14:27:36;;;;;;;;;;;1.50;99.90;;;;;;4980426;28;19925;-79
2022/01/26 15:19:07;;;;;;;;;;;1.50;99.90;;;;;;4978358;28;19936;-79
2022/01/26 15:35:00;;;;;;;;;;;1.60;99.90;;;;;;4982659;28;19921;-79
2022/01/26 15:40:22;;;;;;;;;;;1.60;99.90;;;;;;4964928;28;19929;-78
2022/01/26 15:50:59;;;;;;;;;;;1.40;99.90;;;;;;4975489;28;19926;-78
2022/01/26 15:59:19;;;;;;;;;;;1.30;99.90;;;;;;4962462;28;20411;-78
2022/01/26 16:04:53;;;;;;;;;;;1.30;99.90;;;;;;4978945;28;20340;-79
2022/01/26 16:07:28;;;;;;;;;;;1.30;99.90;;;;;;4977602;28;19926;-79
2022/01/26 16:16:32;;;;;;;;;;;1.20;99.90;;;;;;4974238;28;19925;-79
2022/01/26 18:05:29;;;;;;;;;;;0.80;99.90;;;;;;4955674;28;20455;-78
2022/01/26 18:16:22;;;;;;;;;;;0.90;99.90;;;;;;4965505;28;19922;-76
2022/01/26 18:25:56;;;;;;;;;;;0.90;99.90;;;;;;4957101;28;19926;-78
2022/01/26 18:46:24;;;;;;;;;;;0.80;99.90;;;;;;4976823;28;19921;-75
2022/01/26 18:46:28;;;;;;;;;;;0.80;99.90;;;;;;4973040;28;19930;-76
2022/01/26 18:46:53;;;;;;;;;;;0.80;99.90;;;;;;4982601;28;19921;-75
2022/01/26 18:49:21;;;;;;;;;;;0.80;99.90;;;;;;4980621;28;19933;-75
2022/01/26 18:51:49;;;;;;;;;;;0.80;99.90;;;;;;4974399;28;19929;-75
2022/01/26 18:54:16;;;;;;;;;;;0.80;99.90;;;;;;4975014;28;19930;-75
2022/01/26 18:56:45;;;;;;;;;;;0.80;99.90;;;;;;4981230;28;19928;-75
2022/01/26 18:59:19;;;;;;;;;;;0.70;99.90;;;;;;4976715;28;19922;-75
2022/01/26 19:01:46;;;;;;;;;;;0.70;99.90;;;;;;4980037;28;20308;-76
2022/01/26 19:04:44;;;;;;;;;;;0.70;99.90;;;;;;4977268;28;19930;-76
2022/01/26 19:07:12;;;;;;;;;;;0.70;99.90;;;;;;4968868;28;20268;-75
2022/01/26 19:09:42;;;;;;;;;;;0.70;99.90;;;;;;4977448;28;19922;-76
2022/01/26 19:12:12;;;;;;;;;;;0.70;99.90;;;;;;4976541;28;19936;-76
2022/01/26 19:14:42;;;;;;;;;;;0.70;99.90;;;;;;4986016;28;19921;-76
2022/01/26 19:28:00;;;;;;;;;;;0.70;99.90;;;;;;4972990;28;19929;-76
2022/01/26 19:31:33;;;;;;;;;;;0.70;99.90;;;;;;4941796;28;19922;-76
2022/01/26 19:52:45;;;;;;;;;;;0.70;99.90;;;;;;4957089;28;20462;-76
2022/01/26 19:55:14;;;;;;;;;;;0.70;99.90;;;;;;4983129;28;20280;-76
2022/01/26 19:57:43;;;;;;;;;;;0.70;99.90;;;;;;4987405;28;19926;-76
2022/01/26 20:00:10;;;;;;;;;;;0.70;99.90;;;;;;4980350;28;19926;-76
2022/01/26 20:02:36;;;;;;;;;;;0.60;99.90;;;;;;4980664;28;19965;-76
2022/01/26 20:05:04;;;;;;;;;;;0.60;99.90;;;;;;4971950;28;19973;-76
2022/01/26 20:07:32;;;;;;;;;;;0.60;99.90;;;;;;4996581;28;19930;-75
2022/01/26 20:10:02;;;;;;;;;;;0.70;99.90;;;;;;4980544;28;20103;-76
2022/01/26 20:12:44;;;;;;;;;;;0.60;99.90;;;;;;4981886;28;19922;-75
2022/01/26 20:15:11;;;;;;;;;;;0.60;99.90;;;;;;4976459;28;19926;-76
2022/01/26 20:17:43;;;;;;;;;;;0.70;99.90;;;;;;4985654;28;19971;-76
2022/01/26 20:20:14;;;;;;;;;;;0.60;99.90;;;;;;4983649;28;20362;-76
2022/01/26 20:22:42;;;;;;;;;;;0.60;99.90;;;;;;4984180;28;19926;-76
2022/01/26 20:25:11;;;;;;;;;;;0.60;99.90;;;;;;4948937;28;19929;-76
2022/01/26 20:27:38;;;;;;;;;;;0.60;99.90;;;;;;4996998;28;19921;-76
2022/01/26 20:30:12;;;;;;;;;;;0.60;99.90;;;;;;4993542;28;19929;-76
2022/01/26 20:32:39;;;;;;;;;;;0.60;99.90;;;;;;4993257;28;19921;-76
2022/01/26 20:35:06;;;;;;;;;;;0.60;99.90;;;;;;4982466;28;19932;-76
2022/01/26 20:37:33;;;;;;;;;;;0.60;99.90;;;;;;4979724;28;19921;-76
2022/01/26 20:40:02;;;;;;;;;;;0.60;99.90;;;;;;4984096;28;19921;-76
2022/01/26 20:42:29;;;;;;;;;;;0.60;99.90;;;;;;4980865;28;19923;-75
2022/01/26 20:44:56;;;;;;;;;;;0.60;99.90;;;;;;4984156;28;19925;-76
2022/01/26 20:47:22;;;;;;;;;;;0.60;99.90;;;;;;4983982;28;19922;-76
2022/01/26 20:49:49;;;;;;;;;;;0.60;99.90;;;;;;4983123;28;19971;-76
2022/01/26 20:52:16;;;;;;;;;;;0.60;99.90;;;;;;4984635;28;19949;-76
2022/01/26 20:54:42;;;;;;;;;;;0.60;99.90;;;;;;4984341;28;19922;-76
2022/01/26 20:57:15;;;;;;;;;;;0.60;99.90;;;;;;4976807;28;19925;-76
2022/01/26 20:59:42;;;;;;;;;;;0.60;99.90;;;;;;4986486;28;19921;-76
2022/01/26 21:02:09;;;;;;;;;;;0.50;99.90;;;;;;4990370;28;20018;-76
2022/01/26 21:04:36;;;;;;;;;;;0.50;99.90;;;;;;4983734;28;20402;-76
2022/01/26 21:07:06;;;;;;;;;;;0.50;99.90;;;;;;4979998;28;19933;-75
2022/01/26 21:09:33;;;;;;;;;;;0.50;99.90;;;;;;4977465;28;19930;-75
2022/01/26 21:12:00;;;;;;;;;;;0.60;99.90;;;;;;4983201;28;19925;-75
2022/01/26 21:14:26;;;;;;;;;;;0.60;99.90;;;;;;4983806;28;19921;-75
2022/01/26 21:16:55;;;;;;;;;;;0.60;99.90;;;;;;4979135;28;20532;-75
2022/01/26 21:19:22;;;;;;;;;;;0.60;99.90;;;;;;4982071;28;20030;-75
2022/01/26 21:21:48;;;;;;;;;;;0.50;99.90;;;;;;4971635;28;19922;-75
2022/01/26 21:24:35;;;;;;;;;;;0.60;99.90;;;;;;4982791;28;19970;-75
2022/01/26 21:27:02;;;;;;;;;;;0.50;99.90;;;;;;4946058;28;20303;-75
2022/01/26 21:29:28;;;;;;;;;;;0.50;99.90;;;;;;4973626;28;19929;-75
2022/01/26 21:31:55;;;;;;;;;;;0.50;99.90;;;;;;4977095;28;19929;-76
2022/01/26 21:34:22;;;;;;;;;;;0.50;99.90;;;;;;4972443;28;19926;-75
2022/01/26 21:36:49;;;;;;;;;;;0.50;99.90;;;;;;4964776;28;20602;-75
2022/01/26 21:39:16;;;;;;;;;;;0.50;99.90;;;;;;4992962;28;19922;-76
2022/01/26 21:41:43;;;;;;;;;;;0.50;99.90;;;;;;4974426;28;19922;-76
2022/01/26 21:44:09;;;;;;;;;;;0.50;99.90;;;;;;4979058;28;19928;-76
2022/01/26 21:46:38;;;;;;;;;;;0.50;99.90;;;;;;4975009;28;20284;-76